Time;durP1;ratioP1;P1;durP2;ratioP2;P2;SDS_P1;SDS_P2;PMS_P1;PMS_P2;Temp;Humidity;BMP_temperature;BMP_pressure;BME280_temperature;BME280_humidity;BME280_pressure;Samples;Min_cycle;Max_cycle;Signal;HPM_P1;HPM_P2
2022/09/10 00:01:09;;;;;;;2.75;1.90;;;;;;;11.79;69.38;100830.25;1660624;85;21443;-71
2022/09/10 00:03:35;;;;;;;2.90;1.87;;;;;;;11.77;69.58;100834.80;1660442;85;21467;-70
2022/09/10 00:06:03;;;;;;;3.35;1.95;;;;;;;11.75;69.69;100825.66;1660243;85;21561;-71
2022/09/10 00:08:33;;;;;;;2.72;1.80;;;;;;;11.73;69.82;100824.09;1685524;85;21849;-71
2022/09/10 00:11:06;;;;;;;2.87;2.00;;;;;;;11.71;69.97;100830.00;1684497;85;21004;-71
2022/09/10 00:13:33;;;;;;;2.90;2.10;;;;;;;11.70;70.03;100828.31;1660296;86;21047;-71
2022/09/10 00:16:02;;;;;;;3.87;1.98;;;;;;;11.69;70.20;100827.95;1660240;86;21435;-71
2022/09/10 00:18:29;;;;;;;4.55;2.12;;;;;;;11.69;70.12;100831.92;1660325;85;20972;-70
2022/09/10 00:20:57;;;;;;;3.27;2.10;;;;;;;11.70;70.10;100833.61;1676571;85;21843;-70
2022/09/10 00:23:26;;;;;;;3.65;2.20;;;;;;;11.67;70.03;100829.37;1687924;84;22056;-71
2022/09/10 00:25:53;;;;;;;4.87;1.82;;;;;;;11.69;70.08;100822.19;1681618;85;21063;-71
2022/09/10 00:28:21;;;;;;;2.85;1.92;;;;;;;11.69;70.15;100826.15;1660267;86;20995;-71
2022/09/10 00:30:50;;;;;;;2.92;2.10;;;;;;;11.69;70.18;100831.45;1672505;85;20993;-71
2022/09/10 00:33:18;;;;;;;3.33;1.85;;;;;;;11.70;70.17;100830.96;1668702;83;21855;-71
2022/09/10 00:35:44;;;;;;;3.30;2.05;;;;;;;11.70;70.06;100829.64;1660779;85;21031;-70
2022/09/10 00:38:13;;;;;;;3.47;2.05;;;;;;;11.69;70.16;100822.19;1660618;85;21063;-70
2022/09/10 00:40:41;;;;;;;5.25;2.20;;;;;;;11.71;70.40;100814.13;1640158;86;20992;-70
2022/09/10 00:43:19;;;;;;;6.42;2.22;;;;;;;11.71;70.31;100813.64;1662791;85;21418;-70
2022/09/10 00:45:51;;;;;;;3.05;1.90;;;;;;;11.71;70.32;100824.22;1677458;85;22072;-70
2022/09/10 00:48:25;;;;;;;5.20;2.10;;;;;;;11.71;70.35;100827.35;1676120;85;20968;-70
2022/09/10 00:50:51;;;;;;;;;;;;;;;11.73;70.35;100821.45;1665338;85;20985;-71
2022/09/10 00:53:22;;;;;;;3.95;2.17;;;;;;;11.74;70.49;100827.95;1670032;85;21108;-71
2022/09/10 00:55:52;;;;;;;4.20;2.17;;;;;;;11.74;70.71;100812.06;1703325;83;20961;-70
2022/09/10 00:58:21;;;;;;;3.58;1.90;;;;;;;11.72;70.88;100815.80;1695256;83;21538;-71
2022/09/10 01:00:48;;;;;;;3.77;2.08;;;;;;;11.76;71.07;100815.91;1671169;84;21422;-70
2022/09/10 01:03:14;;;;;;;2.42;1.77;;;;;;;11.78;71.23;100811.38;1667817;84;21006;-71
2022/09/10 01:05:44;;;;;;;2.90;1.75;;;;;;;11.80;71.38;100809.95;1665714;85;21523;-70
2022/09/10 01:08:14;;;;;;;2.75;1.80;;;;;;;11.82;71.56;100794.31;1646150;84;21067;-70
2022/09/10 01:11:01;;;;;;;3.00;1.95;;;;;;;11.82;71.82;100785.53;1663722;85;21166;-70
2022/09/10 01:13:58;;;;;;;3.10;2.08;;;;;;;11.84;72.12;100791.05;1666012;85;21519;-70
2022/09/10 01:16:39;;;;;;;3.35;2.00;;;;;;;11.85;72.35;100796.70;1659263;84;21538;-71
2022/09/10 01:19:40;;;;;;;4.90;2.00;;;;;;;11.88;72.51;100788.55;1665700;85;21479;-70
2022/09/10 01:22:32;;;;;;;3.90;1.80;;;;;;;11.91;72.77;100790.95;1661163;85;21033;-70
2022/09/10 01:25:28;;;;;;;5.67;1.95;;;;;;;11.94;72.98;100784.08;1656019;85;21462;-70
2022/09/10 01:27:56;;;;;;;3.52;1.85;;;;;;;11.92;73.10;100791.30;1660681;85;21032;-70
2022/09/10 01:30:33;;;;;;;3.58;1.85;;;;;;;11.94;73.26;100788.53;1673917;85;21016;-70
2022/09/10 01:33:16;;;;;;;2.92;2.08;;;;;;;11.94;73.37;100786.73;1657459;85;39717;-70
2022/09/10 01:35:49;;;;;;;4.15;1.92;;;;;;;11.96;73.58;100791.41;1653657;86;21103;-70
2022/09/10 01:38:27;;;;;;;3.60;2.05;;;;;;;11.97;73.69;100786.98;1667665;83;21988;-69
2022/09/10 01:40:54;;;;;;;4.33;2.30;;;;;;;11.99;73.87;100793.00;1676838;85;21500;-70
2022/09/10 01:43:22;;;;;;;4.05;2.20;;;;;;;11.98;74.12;100791.31;1677788;84;21071;-70
2022/09/10 01:46:21;;;;;;;3.20;2.20;;;;;;;11.96;74.24;100799.35;1660096;84;21455;-70
2022/09/10 01:49:03;;;;;;;3.15;2.25;;;;;;;11.95;74.37;100790.22;1670647;85;21154;-70
2022/09/10 01:51:45;;;;;;;6.67;2.45;;;;;;;11.95;74.47;100794.19;1680378;84;21545;-70
2022/09/10 01:54:45;;;;;;;3.83;2.75;;;;;;;11.95;74.57;100800.32;1660383;84;21078;-70
2022/09/10 01:57:25;;;;;;;3.08;2.37;;;;;;;11.93;74.81;100798.28;1654225;85;21107;-70
2022/09/10 02:00:05;;;;;;;4.25;2.33;;;;;;;11.91;75.03;100800.21;1658625;85;21039;-70
2022/09/10 02:03:02;;;;;;;4.25;2.47;;;;;;;11.91;75.13;100801.53;1685737;84;20982;-69
2022/09/10 02:05:34;;;;;;;3.55;2.50;;;;;;;11.88;75.28;100799.14;1660435;86;21976;-71
2022/09/10 02:08:11;;;;;;;3.65;2.47;;;;;;;11.89;75.45;100792.87;1664197;85;20964;-70
2022/09/10 02:10:58;;;;;;;4.12;2.52;;;;;;;11.88;75.55;100792.52;1668793;85;20968;-69
2022/09/10 02:13:29;;;;;;;4.92;2.75;;;;;;;11.89;75.69;100786.74;1710242;83;21038;-69
2022/09/10 02:16:22;;;;;;;4.97;2.80;;;;;;;11.88;75.79;100781.09;1688120;83;21032;-69
2022/09/10 02:18:49;;;;;;;3.52;2.67;;;;;;;11.88;75.98;100791.68;1657886;83;22396;-70
2022/09/10 02:21:16;;;;;;;3.90;2.67;;;;;;;11.85;76.10;100792.73;1663970;84;21023;-69
2022/09/10 02:23:44;;;;;;;3.87;2.50;;;;;;;11.85;76.31;100782.15;1667238;84;21111;-69
2022/09/10 02:26:13;;;;;;;3.98;2.67;;;;;;;11.85;76.38;100778.18;1692715;84;21040;-69
2022/09/10 02:28:40;;;;;;;3.95;2.58;;;;;;;11.84;76.52;100773.85;1682272;82;20862;-69
2022/09/10 02:31:06;;;;;;;3.15;2.40;;;;;;;11.83;76.80;100777.47;1668788;85;22596;-72
2022/09/10 02:33:34;;;;;;;5.03;2.70;;;;;;;11.82;76.97;100770.49;1680082;85;21029;-70
2022/09/10 02:36:02;;;;;;;6.28;3.12;;;;;;;11.81;77.15;100763.52;1669093;84;20991;-70
2022/09/10 02:38:30;;;;;;;4.30;2.67;;;;;;;11.82;77.34;100767.00;1667305;83;21446;-69
2022/09/10 02:40:58;;;;;;;3.58;2.60;;;;;;;11.82;77.51;100755.94;1674248;84;21464;-70
2022/09/10 02:43:26;;;;;;;5.80;2.95;;;;;;;11.84;77.70;100766.39;1677239;85;22460;-70
2022/09/10 02:45:56;;;;;;;3.62;2.85;;;;;;;11.84;77.83;100765.91;1660762;85;21067;-69
2022/09/10 02:48:25;;;;;;;4.90;3.10;;;;;;;11.86;77.93;100777.70;1670693;83;21047;-70
2022/09/10 02:50:53;;;;;;;5.50;3.20;;;;;;;11.86;77.95;100774.56;1669174;84;21071;-70
2022/09/10 02:53:20;;;;;;;5.00;3.37;;;;;;;11.86;78.02;100775.05;1662439;83;20979;-70
2022/09/10 02:55:48;;;;;;;3.98;2.98;;;;;;;11.86;78.02;100779.02;1683681;84;22200;-70
2022/09/10 02:58:15;;;;;;;4.45;3.17;;;;;;;11.88;78.07;100773.16;1685851;82;20982;-70
2022/09/10 03:00:44;;;;;;;6.58;3.27;;;;;;;11.89;78.08;100777.48;1683603;83;21054;-69
2022/09/10 03:03:11;;;;;;;6.47;3.35;;;;;;;11.90;78.11;100767.25;1689736;83;21192;-70
2022/09/10 03:05:38;;;;;;;5.83;3.58;;;;;;;11.90;78.15;100769.89;1695263;83;21079;-70
2022/09/10 03:08:06;;;;;;;5.03;3.17;;;;;;;11.89;78.19;100769.05;1673678;84;21842;-69
2022/09/10 03:10:34;;;;;;;6.30;3.33;;;;;;;11.89;78.23;100766.41;1673346;84;21490;-70
2022/09/10 03:13:01;;;;;;;4.80;3.22;;;;;;;11.90;78.25;100783.13;1690785;83;20979;-69
2022/09/10 03:15:27;;;;;;;8.03;3.40;;;;;;;11.90;78.20;100779.16;1670483;84;21558;-71
2022/09/10 03:17:55;;;;;;;5.87;3.50;;;;;;;11.90;78.23;100777.35;1688084;83;21018;-70
2022/09/10 03:20:22;;;;;;;5.58;3.60;;;;;;;11.91;78.22;100775.55;1672529;84;21863;-70
2022/09/10 03:22:51;;;;;;;6.58;3.60;;;;;;;11.92;78.21;100775.91;1700744;84;20960;-70
2022/09/10 03:25:18;;;;;;;5.78;3.65;;;;;;;11.91;78.20;100777.71;1700577;84;20967;-70
2022/09/10 03:27:46;;;;;;;6.00;3.98;;;;;;;11.92;78.14;100769.28;1692904;83;21015;-69
2022/09/10 03:30:13;;;;;;;4.17;3.20;;;;;;;11.91;78.12;100772.91;1679684;84;21050;-70
2022/09/10 03:32:40;;;;;;;6.20;3.52;;;;;;;11.88;78.14;100773.99;1674836;84;22308;-70
2022/09/10 03:35:09;;;;;;;4.80;3.30;;;;;;;11.88;78.20;100765.21;1678274;83;21070;-70
2022/09/10 03:37:38;;;;;;;4.92;3.67;;;;;;;11.88;78.21;100758.11;1696498;84;20941;-70
2022/09/10 03:40:08;;;;;;;5.83;3.77;;;;;;;11.87;78.23;100762.17;1702563;81;20989;-70
2022/09/10 03:42:36;;;;;;;5.92;3.50;;;;;;;11.87;78.31;100752.91;1675846;84;21038;-70
2022/09/10 03:45:03;;;;;;;5.50;3.67;;;;;;;11.87;78.35;100741.87;1699511;83;22250;-70
2022/09/10 03:47:30;;;;;;;5.37;3.35;;;;;;;11.88;78.50;100750.17;1689494;81;21498;-70
2022/09/10 03:49:59;;;;;;;4.10;3.22;;;;;;;11.88;78.62;100749.33;1711753;81;20968;-70
2022/09/10 03:52:26;;;;;;;6.42;4.10;;;;;;;11.89;78.75;100737.30;1702548;81;20977;-72
2022/09/10 03:54:52;;;;;;;4.35;3.65;;;;;;;11.91;78.86;100735.36;1678424;83;21070;-70
2022/09/10 03:57:20;;;;;;;7.20;4.10;;;;;;;11.94;78.98;100732.94;1698931;84;21800;-70
2022/09/10 03:59:48;;;;;;;7.80;4.67;;;;;;;11.96;79.11;100728.36;1671249;83;21011;-70
2022/09/10 04:02:15;;;;;;;6.83;4.33;;;;;;;11.98;79.22;100735.23;1666840;83;21072;-71
2022/09/10 04:04:43;;;;;;;5.67;4.20;;;;;;;12.01;79.24;100731.02;1702100;84;20995;-71
2022/09/10 04:07:10;;;;;;;8.25;4.40;;;;;;;12.06;79.27;100731.12;1684618;84;20998;-71
2022/09/10 04:09:36;;;;;;;7.90;4.42;;;;;;;12.10;79.30;100727.28;1690837;84;22265;-71
2022/09/10 04:12:05;;;;;;;6.30;4.72;;;;;;;12.13;79.32;100727.02;1685435;82;20998;-70
2022/09/10 04:14:33;;;;;;;7.08;4.72;;;;;;;12.15;79.36;100725.09;1660134;86;21740;-70
2022/09/10 04:17:01;;;;;;;6.45;4.87;;;;;;;12.15;79.33;100723.28;1660198;86;21292;-70
2022/09/10 04:19:30;;;;;;;6.25;4.45;;;;;;;12.15;79.33;100723.28;1666271;85;20967;-71
2022/09/10 04:21:56;;;;;;;7.33;4.80;;;;;;;12.15;79.33;100723.28;1686920;85;22477;-70
2022/09/10 04:24:24;;;;;;;8.38;4.85;;;;;;;12.15;79.36;100724.60;1686985;83;21531;-70
2022/09/10 04:26:51;;;;;;;5.37;4.45;;;;;;;12.15;79.32;100726.41;1687979;85;21387;-71
2022/09/10 04:29:18;;;;;;;7.00;4.58;;;;;;;12.15;79.32;100726.41;1681121;85;21032;-71
2022/09/10 04:31:45;;;;;;;6.47;4.17;;;;;;;12.15;79.28;100723.77;1640904;86;21046;-70
2022/09/10 04:34:14;;;;;;;7.12;5.00;;;;;;;12.15;79.22;100725.09;1658141;83;22003;-70
2022/09/10 04:36:42;;;;;;;7.35;4.87;;;;;;;12.15;79.17;100733.03;1668789;83;21328;-69
2022/09/10 04:39:09;;;;;;;7.15;4.87;;;;;;;12.16;79.06;100732.06;1675612;85;20936;-70
2022/09/10 04:41:36;;;;;;;6.60;4.70;;;;;;;12.15;78.89;100729.90;1681563;84;20996;-70
2022/09/10 04:44:05;;;;;;;4.87;4.00;;;;;;;12.16;78.73;100741.33;1664378;83;21039;-71
2022/09/10 04:46:32;;;;;;;7.20;4.50;;;;;;;12.17;78.66;100728.48;1663024;83;22153;-70
2022/09/10 04:48:59;;;;;;;5.72;4.03;;;;;;;12.18;78.49;100733.65;1678687;83;20960;-70
2022/09/10 04:51:27;;;;;;;5.53;4.05;;;;;;;12.19;78.26;100731.84;1686013;85;21446;-70
2022/09/10 04:53:54;;;;;;;6.20;4.28;;;;;;;12.19;78.05;100738.45;1680445;83;21024;-71
2022/09/10 04:56:23;;;;;;;6.97;4.65;;;;;;;12.17;77.76;100731.13;1704925;84;20967;-70
2022/09/10 04:58:50;;;;;;;5.30;4.00;;;;;;;12.16;77.58;100728.96;1673420;83;21837;-70
2022/09/10 05:01:17;;;;;;;6.03;3.87;;;;;;;12.17;77.34;100739.07;1669429;84;21431;-71
2022/09/10 05:03:44;;;;;;;6.33;4.30;;;;;;;12.17;77.16;100736.42;1675132;84;21572;-70
2022/09/10 05:06:12;;;;;;;7.45;4.40;;;;;;;12.18;77.05;100724.86;1674190;83;21517;-70
2022/09/10 05:08:39;;;;;;;5.40;4.08;;;;;;;12.19;76.91;100730.52;1675189;83;20979;-70
2022/09/10 05:11:07;;;;;;;8.45;4.03;;;;;;;12.19;76.83;100732.68;1682986;84;21804;-71
2022/09/10 05:13:33;;;;;;;5.25;3.85;;;;;;;12.21;76.72;100725.93;1677572;84;21067;-71
2022/09/10 05:16:01;;;;;;;7.45;4.30;;;;;;;12.23;76.52;100721.34;1689810;84;21075;-70
2022/09/10 05:18:30;;;;;;;7.35;4.67;;;;;;;12.24;76.36;100722.54;1715170;83;20958;-70
2022/09/10 05:20:57;;;;;;;7.08;4.42;;;;;;;12.25;76.15;100724.22;1679081;84;21537;-70
2022/09/10 05:23:25;;;;;;;6.15;4.37;;;;;;;12.26;76.04;100723.77;1672628;84;22454;-70
2022/09/10 05:25:55;;;;;;;6.83;4.20;;;;;;;12.26;75.90;100729.06;1678245;84;21082;-70
2022/09/10 05:28:23;;;;;;;7.20;4.00;;;;;;;12.25;75.74;100718.08;1673035;84;21500;-70
2022/09/10 05:30:50;;;;;;;5.87;4.03;;;;;;;12.25;75.53;100727.35;1679837;83;21466;-71
2022/09/10 05:33:18;;;;;;;6.40;3.85;;;;;;;12.23;75.47;100720.02;1673264;84;20986;-70
2022/09/10 05:35:50;;;;;;;4.97;3.90;;;;;;;12.23;75.40;100718.70;1678707;84;21821;-71
2022/09/10 05:38:17;;;;;;;6.55;3.85;;;;;;;12.23;75.34;100722.67;1673430;84;21109;-71
2022/09/10 05:40:44;;;;;;;6.47;3.75;;;;;;;12.23;75.25;100710.75;1686017;83;21024;-71
2022/09/10 05:43:11;;;;;;;5.70;4.00;;;;;;;12.26;75.31;100710.04;1675338;84;20986;-72
2022/09/10 05:45:38;;;;;;;6.15;4.10;;;;;;;12.28;75.33;100708.59;1679038;83;20944;-70
2022/09/10 05:48:05;;;;;;;5.80;4.45;;;;;;;12.31;75.32;100703.03;1686585;83;21918;-71
2022/09/10 05:50:32;;;;;;;6.58;3.92;;;;;;;12.33;75.34;100709.88;1683198;84;21518;-71
2022/09/10 05:53:00;;;;;;;6.45;4.15;;;;;;;12.35;75.34;100707.58;1689870;84;21415;-70
2022/09/10 05:55:30;;;;;;;7.70;3.95;;;;;;;12.35;75.38;100707.58;1696082;84;21099;-70
2022/09/10 05:57:57;;;;;;;5.53;3.83;;;;;;;12.35;75.30;100708.42;1676971;83;21031;-71
2022/09/10 06:00:25;;;;;;;5.70;3.50;;;;;;;12.35;75.27;100714.20;1681178;83;21870;-71
2022/09/10 06:02:59;;;;;;;6.65;3.30;;;;;;;12.34;75.15;100710.72;1662458;85;21078;-71
2022/09/10 06:05:28;;;;;;;7.75;4.00;;;;;;;12.35;75.08;100716.37;1680692;84;21049;-72
2022/09/10 06:07:55;;;;;;;5.75;3.60;;;;;;;12.36;75.02;100716.75;1668325;85;21058;-71
2022/09/10 06:10:22;;;;;;;5.00;3.58;;;;;;;12.39;74.90;100723.12;1676606;83;20991;-71
2022/09/10 06:12:51;;;;;;;5.35;3.77;;;;;;;12.37;74.41;100722.89;1670421;85;21934;-71
2022/09/10 06:15:19;;;;;;;7.30;4.10;;;;;;;12.32;74.27;100728.06;1677403;84;20968;-72
2022/09/10 06:17:47;;;;;;;6.30;3.62;;;;;;;12.28;74.17;100728.45;1677719;83;21074;-71
2022/09/10 06:20:14;;;;;;;5.45;3.60;;;;;;;12.27;74.13;100726.28;1671379;85;21063;-72
2022/09/10 06:22:42;;;;;;;5.90;3.50;;;;;;;12.25;73.93;100727.35;1695121;82;21466;-70
2022/09/10 06:25:09;;;;;;;4.60;3.42;;;;;;;12.21;73.71;100729.91;1682573;83;21843;-71
2022/09/10 06:27:37;;;;;;;5.55;3.10;;;;;;;12.17;73.59;100728.00;1666331;85;20995;-71
2022/09/10 06:30:06;;;;;;;6.33;3.35;;;;;;;12.17;73.54;100728.48;1678667;84;21048;-71
2022/09/10 06:32:33;;;;;;;5.67;3.98;;;;;;;12.15;73.25;100735.68;1701579;82;21036;-70
2022/09/10 06:35:01;;;;;;;6.10;3.85;;;;;;;12.13;73.02;100736.30;1670897;85;21450;-70
2022/09/10 06:37:33;;;;;;;6.37;3.90;;;;;;;12.09;72.83;100743.65;1660024;86;21956;-71
2022/09/10 06:39:57;;;;;;;5.45;4.00;;;;;;;12.07;72.63;100753.53;1663917;85;21592;-71
2022/09/10 06:42:24;;;;;;;4.67;3.55;;;;;;;12.06;72.47;100757.11;1661291;83;21066;-71
2022/09/10 06:44:59;;;;;;;6.92;3.50;;;;;;;12.03;72.24;100754.23;1650742;85;21030;-70
2022/09/10 06:47:43;;;;;;;4.90;3.60;;;;;;;11.96;71.83;100750.38;1662927;84;21050;-71
2022/09/10 06:50:10;;;;;;;4.60;3.72;;;;;;;11.92;71.72;100757.38;1674802;83;21807;-71
2022/09/10 06:52:39;;;;;;;8.48;3.60;;;;;;;11.88;71.70;100756.79;1696112;84;21338;-71
2022/09/10 06:55:08;;;;;;;5.50;3.87;;;;;;;11.84;71.75;100758.45;1702888;82;21030;-70
2022/09/10 06:57:38;;;;;;;6.60;4.40;;;;;;;11.78;71.86;100750.50;1679248;84;20989;-71
2022/09/10 07:00:10;;;;;;;5.92;4.10;;;;;;;11.72;71.97;100755.78;1674202;85;21070;-70
2022/09/10 07:02:38;;;;;;;6.92;4.35;;;;;;;11.64;72.20;100758.17;1715820;81;21815;-72
2022/09/10 07:05:06;;;;;;;9.28;4.37;;;;;;;11.59;72.51;100749.77;1681975;84;21042;-72
2022/09/10 07:07:33;;;;;;;5.45;4.47;;;;;;;11.54;72.77;100751.91;1699263;83;21024;-72
2022/09/10 07:10:01;;;;;;;5.53;4.10;;;;;;;11.50;73.06;100763.70;1676444;84;21564;-70
2022/09/10 07:12:29;;;;;;;8.73;4.47;;;;;;;11.44;73.44;100762.36;1692817;83;21018;-71
2022/09/10 07:14:56;;;;;;;6.08;4.10;;;;;;;11.40;73.59;100763.57;1694544;83;21771;-70
2022/09/10 07:17:23;;;;;;;5.97;4.22;;;;;;;11.39;73.83;100756.59;1673435;84;21126;-70
2022/09/10 07:19:50;;;;;;;5.90;4.35;;;;;;;11.41;74.04;100751.19;1689557;83;21109;-70
2022/09/10 07:22:19;;;;;;;8.58;4.90;;;;;;;11.40;74.31;100750.34;1672238;83;21094;-71
2022/09/10 07:24:49;;;;;;;6.10;4.80;;;;;;;11.37;74.48;100747.91;1690688;84;21030;-72
2022/09/10 07:27:17;;;;;;;7.00;4.17;;;;;;;11.35;74.69;100745.03;1718136;83;21878;-71
2022/09/10 07:29:45;;;;;;;5.15;4.08;;;;;;;11.35;74.85;100741.07;1689599;83;21038;-72
2022/09/10 07:32:17;;;;;;;6.20;4.42;;;;;;;11.35;75.04;100743.72;1712209;83;21013;-72
2022/09/10 07:34:46;;;;;;;6.78;4.70;;;;;;;11.39;75.32;100743.86;1679854;84;21031;-73
2022/09/10 07:37:14;;;;;;;6.60;4.15;;;;;;;11.39;75.46;100738.57;1678799;84;21086;-72
2022/09/10 07:39:41;;;;;;;7.75;4.47;;;;;;;11.39;75.60;100739.89;1673028;83;22025;-72
2022/09/10 07:42:10;;;;;;;8.80;4.70;;;;;;;11.39;75.71;100732.80;1680627;84;21102;-70
2022/09/10 07:44:37;;;;;;;6.85;4.80;;;;;;;11.40;75.87;100739.77;1680059;83;21034;-71
2022/09/10 07:47:04;;;;;;;9.98;5.10;;;;;;;11.41;76.02;100743.25;1680974;83;21122;-75
2022/09/10 07:49:32;;;;;;;7.10;4.95;;;;;;;11.40;76.18;100740.25;1677655;84;21003;-72
2022/09/10 07:51:59;;;;;;;7.75;5.05;;;;;;;11.40;76.24;100727.87;1686104;83;21821;-73
2022/09/10 07:54:27;;;;;;;12.85;6.50;;;;;;;11.43;76.50;100732.91;1692197;84;21652;-71
2022/09/10 07:56:55;;;;;;;12.80;6.45;;;;;;;11.53;76.69;100740.13;1698742;83;21055;-72
2022/09/10 07:59:22;;;;;;;7.80;5.62;;;;;;;11.59;76.77;100729.92;1681290;84;20979;-70
2022/09/10 08:01:51;;;;;;;7.20;5.72;;;;;;;11.65;76.88;100730.75;1699770;81;20985;-71
2022/09/10 08:04:18;;;;;;;6.62;5.45;;;;;;;11.72;76.93;100731.13;1673224;83;21847;-71
2022/09/10 08:06:45;;;;;;;8.45;5.30;;;;;;;11.79;77.06;100733.66;1660329;86;21012;-71
2022/09/10 08:09:13;;;;;;;6.15;5.08;;;;;;;11.88;77.17;100737.42;1660390;86;20987;-71
2022/09/10 08:11:41;;;;;;;5.80;4.83;;;;;;;11.94;77.09;100732.94;1681096;83;20938;-70
2022/09/10 08:14:12;;;;;;;7.97;4.80;;;;;;;12.02;77.17;100729.20;1685370;84;21072;-71
2022/09/10 08:16:39;;;;;;;7.70;5.20;;;;;;;12.09;77.13;100726.92;1688222;85;22033;-70
2022/09/10 08:19:08;;;;;;;8.70;5.08;;;;;;;12.13;77.03;100723.05;1709166;83;20991;-71
2022/09/10 08:21:36;;;;;;;7.35;5.10;;;;;;;12.17;77.10;100723.18;1686201;84;21009;-70
2022/09/10 08:24:03;;;;;;;7.58;5.00;;;;;;;12.21;77.06;100721.95;1656604;85;21026;-71
2022/09/10 08:26:32;;;;;;;8.48;5.78;;;;;;;12.24;76.85;100718.56;1653229;85;21029;-71
2022/09/10 08:29:01;;;;;;;7.05;5.28;;;;;;;12.26;76.72;100709.20;1653014;86;21974;-70
2022/09/10 08:31:28;;;;;;;7.67;5.22;;;;;;;12.30;76.71;100710.14;1635872;85;20982;-71
2022/09/10 08:33:57;;;;;;;8.55;5.20;;;;;;;12.36;76.67;100707.48;1655200;84;21007;-70
2022/09/10 08:36:25;;;;;;;8.45;5.60;;;;;;;12.40;76.66;100707.58;1687316;84;21057;-70
2022/09/10 08:38:53;;;;;;;9.88;5.60;;;;;;;12.44;76.47;100702.86;1686523;85;20984;-71
2022/09/10 08:41:40;;;;;;;6.42;5.30;;;;;;;12.46;76.41;100704.44;1653053;84;22575;-71
2022/09/10 08:44:33;;;;;;;7.87;5.10;;;;;;;12.52;76.37;100699.94;1685586;84;21102;-70
2022/09/10 08:47:12;;;;;;;7.87;5.78;;;;;;;12.54;76.29;100691.37;1691714;84;20943;-70
2022/09/10 08:49:57;;;;;;;7.33;5.25;;;;;;;12.53;76.02;100699.45;1688200;85;21082;-70
2022/09/10 08:52:33;;;;;;;7.47;5.58;;;;;;;12.51;76.00;100698.27;1677798;85;21078;-70
2022/09/10 08:55:20;;;;;;;6.83;5.40;;;;;;;12.50;76.03;100701.05;1675041;85;21803;-69
2022/09/10 08:58:02;;;;;;;7.75;5.83;;;;;;;12.47;76.02;100690.22;1660238;86;20952;-69
2022/09/10 09:00:33;;;;;;;9.40;5.05;;;;;;;12.48;76.14;100693.23;1660668;86;21402;-69
2022/09/10 09:03:24;;;;;;;7.35;5.10;;;;;;;12.48;76.04;100699.85;1682211;84;20972;-69
2022/09/10 09:06:01;;;;;;;8.03;5.58;;;;;;;12.50;76.10;100695.26;1699973;82;21004;-69
2022/09/10 09:08:47;;;;;;;7.62;5.60;;;;;;;12.51;76.13;100694.28;1724443;83;21890;-69
2022/09/10 09:11:46;;;;;;;7.53;5.40;;;;;;;12.52;76.16;100689.34;1699794;84;21023;-69
2022/09/10 09:14:35;;;;;;;9.05;6.00;;;;;;;12.53;76.21;100687.05;1698569;83;21113;-72
2022/09/10 09:17:46;;;;;;;7.87;5.70;;;;;;;12.52;76.17;100690.67;1689564;84;21022;-71
2022/09/10 09:20:21;;;;;;;8.90;5.37;;;;;;;12.52;76.21;100686.69;1678078;84;21149;-69
2022/09/10 09:23:22;;;;;;;10.08;6.40;;;;;;;12.54;76.42;100679.45;1691491;84;21671;-69
2022/09/10 09:25:55;;;;;;;8.90;5.70;;;;;;;12.58;76.51;100678.25;1693631;83;21367;-71
2022/09/10 09:28:56;;;;;;;7.85;6.37;;;;;;;12.63;76.65;100678.34;1700089;84;20992;-71
2022/09/10 09:31:26;;;;;;;9.68;6.53;;;;;;;12.69;76.85;100677.35;1648768;85;21501;-69
2022/09/10 09:33:58;;;;;;;9.10;5.97;;;;;;;12.77;76.96;100668.77;1677114;84;21149;-70
2022/09/10 09:36:33;;;;;;;8.70;6.47;;;;;;;12.84;77.02;100668.62;1697083;83;22605;-70
2022/09/10 09:39:00;;;;;;;10.78;6.60;;;;;;;12.89;76.95;100667.73;1651580;85;21405;-70
2022/09/10 09:41:51;;;;;;;8.55;6.28;;;;;;;12.95;76.82;100675.66;1636394;84;21467;-71
2022/09/10 09:44:37;;;;;;;7.28;5.87;;;;;;;12.98;76.79;100676.23;1698272;84;20984;-71
2022/09/10 09:47:04;;;;;;;7.92;5.95;;;;;;;13.03;76.82;100671.88;1687100;83;21042;-73
2022/09/10 09:49:31;;;;;;;8.63;5.92;;;;;;;13.05;76.67;100668.12;1674954;84;22495;-71
2022/09/10 09:51:57;;;;;;;8.13;6.25;;;;;;;13.07;76.60;100666.66;1629061;84;21506;-70
2022/09/10 09:54:27;;;;;;;9.53;6.60;;;;;;;13.08;76.48;100657.24;1695780;84;20991;-71
2022/09/10 09:56:55;;;;;;;8.43;6.45;;;;;;;13.08;76.22;100658.56;1672385;84;21371;-71
2022/09/10 09:59:29;;;;;;;10.32;6.95;;;;;;;13.07;76.13;100658.70;1673244;84;21074;-71
2022/09/10 10:02:01;;;;;;;;;;;;;;;13.08;76.04;100663.87;1672976;84;21814;-71
2022/09/10 10:04:33;;;;;;;9.50;5.97;;;;;;;13.10;75.96;100670.36;1685393;85;20142;-70
2022/09/10 10:07:02;;;;;;;7.05;5.97;;;;;;;13.07;75.83;100658.70;1688280;83;21024;-70
2022/09/10 10:09:32;;;;;;;9.45;6.20;;;;;;;13.09;75.80;100662.89;1688149;83;20988;-69
2022/09/10 10:12:03;;;;;;;8.93;6.12;;;;;;;13.11;75.85;100666.25;1688194;83;21035;-70
2022/09/10 10:14:41;;;;;;;8.38;6.03;;;;;;;13.15;75.88;100674.81;1677897;84;22661;-70
2022/09/10 10:17:36;;;;;;;10.20;6.40;;;;;;;13.18;75.93;100665.25;1672262;83;21078;-70
2022/09/10 10:20:14;;;;;;;9.05;6.15;;;;;;;13.22;76.02;100656.56;1678468;84;21070;-71
2022/09/10 10:22:43;;;;;;;9.40;6.17;;;;;;;13.28;76.14;100656.89;1682317;84;20998;-69
2022/09/10 10:25:39;;;;;;;9.28;6.70;;;;;;;13.37;76.20;100648.13;1698360;84;20938;-69
2022/09/10 10:28:22;;;;;;;10.48;7.08;;;;;;;13.45;76.12;100656.27;1681642;85;22550;-70
2022/09/10 10:30:54;;;;;;;9.88;6.20;;;;;;;13.53;75.96;100652.96;1662118;85;20972;-69
2022/09/10 10:33:27;;;;;;;9.90;6.03;;;;;;;13.55;75.72;100657.64;1679143;85;20996;-70
2022/09/10 10:36:31;;;;;;;9.13;6.28;;;;;;;13.57;75.55;100659.66;1665194;83;21066;-71
2022/09/10 10:39:05;;;;;;;11.10;6.75;;;;;;;13.60;75.49;100657.22;1656547;85;21028;-71
2022/09/10 10:41:47;;;;;;;8.35;6.60;;;;;;;13.62;75.41;100666.75;1657492;84;21887;-70
2022/09/10 10:44:46;;;;;;;11.40;6.60;;;;;;;13.68;75.38;100662.70;1669632;83;21197;-70
2022/09/10 10:47:34;;;;;;;9.58;6.33;;;;;;;13.72;75.45;100653.52;1682542;85;20956;-71
2022/09/10 10:50:21;;;;;;;7.78;6.03;;;;;;;13.75;75.35;100647.44;1687855;83;20984;-70
2022/09/10 10:53:14;;;;;;;9.28;6.22;;;;;;;13.76;75.05;100654.91;1680943;85;21020;-70
2022/09/10 10:55:55;;;;;;;8.15;6.12;;;;;;;13.77;74.90;100647.78;1669516;85;21847;-69
2022/09/10 10:58:50;;;;;;;9.78;6.20;;;;;;;13.78;74.79;100638.35;1652761;85;20995;-69
2022/09/10 11:01:23;;;;;;;9.88;6.20;;;;;;;13.76;74.64;100629.69;1660348;86;21479;-70
2022/09/10 11:03:59;;;;;;;8.83;6.42;;;;;;;13.75;74.58;100627.52;1660943;85;21088;-72
2022/09/10 11:06:32;;;;;;;7.90;6.15;;;;;;;13.76;74.54;100627.03;1661748;85;21472;-70
2022/09/10 11:09:06;;;;;;;7.37;6.10;;;;;;;13.77;74.48;100631.37;1665952;85;21981;-70
2022/09/10 11:12:00;;;;;;;7.03;5.70;;;;;;;13.79;74.39;100623.26;1667888;84;21066;-70
2022/09/10 11:14:54;;;;;;;8.93;6.25;;;;;;;13.79;74.24;100617.95;1672015;83;21059;-71
2022/09/10 11:18:01;;;;;;;8.50;6.47;;;;;;;13.79;74.26;100620.61;1674875;85;21035;-70
2022/09/10 11:20:32;;;;;;;8.53;5.90;;;;;;;13.79;74.29;100616.13;1672114;84;21067;-71
2022/09/10 11:23:28;;;;;;;9.18;6.55;;;;;;;13.82;74.30;100613.23;1670595;83;22493;-69
2022/09/10 11:26:11;;;;;;;10.10;6.17;;;;;;;13.84;74.26;100617.06;1666922;85;21071;-70
2022/09/10 11:28:57;;;;;;;8.23;5.25;;;;;;;13.85;74.21;100616.92;1667283;84;21106;-70
2022/09/10 11:31:39;;;;;;;6.40;5.10;;;;;;;13.87;74.10;100608.82;1671081;85;21036;-73
2022/09/10 11:34:23;;;;;;;8.33;5.67;;;;;;;13.89;73.94;100600.22;1672309;83;21484;-71
2022/09/10 11:37:29;;;;;;;9.05;6.28;;;;;;;13.90;73.92;100601.93;1677318;83;22480;-74
2022/09/10 11:39:58;;;;;;;8.70;5.87;;;;;;;13.92;73.92;100600.80;1675876;85;21020;-72
2022/09/10 11:42:32;;;;;;;11.03;6.15;;;;;;;13.96;73.88;100599.54;1693620;82;21406;-74
2022/09/10 11:45:02;;;;;;;;;;;;;;;13.98;73.74;100593.59;1668282;83;21055;-76
2022/09/10 11:47:32;;;;;;;9.75;5.40;;;;;;;14.01;73.57;100592.50;1690419;83;20142;-75
2022/09/10 11:50:09;;;;;;;7.67;5.33;;;;;;;14.03;73.52;100596.69;1669503;84;22550;-72
2022/09/10 11:52:35;;;;;;;8.40;4.95;;;;;;;14.05;73.42;100596.55;1669965;84;21024;-73